createdAt,value
2023-02-15T00:00:27.902Z,100412.55
2023-02-15T00:02:56.581Z,100416.49
2023-02-15T00:05:24.989Z,100420.52
2023-02-15T00:07:54.089Z,100417.85
2023-02-15T00:10:22.145Z,100415.85
2023-02-15T00:12:51.911Z,100418.63
2023-02-15T00:15:20.247Z,100415.90
2023-02-15T00:17:49.416Z,100419.56
2023-02-15T00:20:19.502Z,100422.45
2023-02-15T00:22:47.560Z,100423.55
2023-02-15T00:25:15.664Z,100418.14
2023-02-15T00:27:43.664Z,100419.76
2023-02-15T00:30:12.562Z,100418.49
2023-02-15T00:32:41.190Z,100421.24
2023-02-15T00:35:10.793Z,100422.79
2023-02-15T00:37:40.215Z,100421.23
2023-02-15T00:40:08.918Z,100422.13
2023-02-15T00:42:38.156Z,100421.53
2023-02-15T00:45:06.558Z,100425.38
2023-02-15T00:47:34.560Z,100429.81
2023-02-15T00:50:04.323Z,100423.67
2023-02-15T00:52:32.876Z,100428.52
2023-02-15T00:55:01.399Z,100423.83
2023-02-15T00:57:29.768Z,100423.22
2023-02-15T01:00:03.743Z,100426.37
2023-02-15T01:02:35.546Z,100431.95
2023-02-15T01:05:04.376Z,100432.16
2023-02-15T01:07:32.417Z,100425.10
2023-02-15T01:10:01.063Z,100427.86
2023-02-15T01:12:29.877Z,100427.09
2023-02-15T01:14:58.454Z,100426.34
2023-02-15T01:17:27.305Z,100424.52
2023-02-15T01:19:58.194Z,100421.81
2023-02-15T01:22:26.458Z,100424.02
2023-02-15T01:24:56.546Z,100427.67
2023-02-15T01:27:24.646Z,100436.86
2023-02-15T01:29:54.014Z,100437.11
2023-02-15T01:32:23.953Z,100444.45
2023-02-15T01:34:52.267Z,100435.81
2023-02-15T01:37:21.675Z,100430.59
2023-02-15T01:39:49.651Z,100431.52
2023-02-15T01:42:24.820Z,100431.83
2023-02-15T01:44:54.983Z,100425.84
2023-02-15T01:47:31.152Z,100427.11
2023-02-15T01:50:31.234Z,100431.17
2023-02-15T01:53:09.730Z,100440.98
2023-02-15T01:55:39.881Z,100444.27
2023-02-15T01:58:08.734Z,100446.48
2023-02-15T02:00:36.747Z,100445.13
2023-02-15T02:03:05.926Z,100446.64
2023-02-15T02:05:35.912Z,100450.66
2023-02-15T02:08:04.508Z,100443.35
2023-02-15T02:10:34.935Z,100446.31
2023-02-15T02:13:05.594Z,100438.40
2023-02-15T02:15:57.340Z,100442.05
2023-02-15T02:18:55.382Z,100453.04
2023-02-15T02:21:50.745Z,100456.28
2023-02-15T02:24:58.478Z,100459.08
2023-02-15T02:27:35.789Z,100457.11
2023-02-15T02:30:46.880Z,100454.29
2023-02-15T02:33:22.179Z,100460.11
2023-02-15T02:36:05.422Z,100457.61
2023-02-15T02:39:02.308Z,100457.09
2023-02-15T02:41:59.914Z,100458.40
2023-02-15T02:44:35.084Z,100454.14
2023-02-15T02:47:20.553Z,100453.23
2023-02-15T02:49:48.825Z,100456.23
2023-02-15T02:52:42.851Z,100457.52
2023-02-15T02:55:16.584Z,100457.52
2023-02-15T02:58:34.437Z,100456.73
2023-02-15T03:01:09.558Z,100459.65
2023-02-15T03:03:49.396Z,100460.27
2023-02-15T03:06:20.134Z,100456.90
2023-02-15T03:08:55.038Z,100460.60
2023-02-15T03:11:23.201Z,100460.84
2023-02-15T03:13:52.784Z,100468.02
2023-02-15T03:16:27.015Z,100466.95
2023-02-15T03:19:00.143Z,100470.89
2023-02-15T03:21:39.920Z,100469.30
2023-02-15T03:24:33.556Z,100468.72
2023-02-15T03:27:03.829Z,100474.10
2023-02-15T03:29:32.022Z,100474.66
2023-02-15T03:32:02.896Z,100481.31
2023-02-15T03:34:30.945Z,100477.66
2023-02-15T03:37:01.680Z,100481.23
2023-02-15T03:39:50.561Z,100476.56
2023-02-15T03:42:32.113Z,100478.19
2023-02-15T03:45:04.750Z,100480.78
2023-02-15T03:47:53.654Z,100478.16
2023-02-15T03:50:50.505Z,100484.88
2023-02-15T03:53:22.058Z,100487.38
2023-02-15T03:55:57.106Z,100488.77
2023-02-15T03:58:43.999Z,100486.06
2023-02-15T04:01:36.277Z,100489.38
2023-02-15T04:04:08.924Z,100487.45
2023-02-15T04:06:37.010Z,100483.69
2023-02-15T04:09:23.639Z,100487.78
2023-02-15T04:11:53.832Z,100491.72
2023-02-15T04:14:40.354Z,100498.65
2023-02-15T04:17:10.742Z,100498.47
2023-02-15T04:19:58.464Z,100502.70
2023-02-15T04:22:45.292Z,100505.00
2023-02-15T04:25:16.333Z,100509.17
2023-02-15T04:27:50.097Z,100507.49
2023-02-15T04:30:19.701Z,100505.58
2023-02-15T04:32:48.108Z,100506.95
2023-02-15T04:35:16.255Z,100510.94
2023-02-15T04:37:50.311Z,100512.02
2023-02-15T04:40:19.705Z,100507.42
2023-02-15T04:42:51.048Z,100510.00
2023-02-15T04:45:19.111Z,100512.02
2023-02-15T04:47:47.694Z,100511.44
2023-02-15T04:50:16.062Z,100515.09
2023-02-15T04:52:45.567Z,100511.56
2023-02-15T04:55:15.368Z,100514.72
2023-02-15T04:57:44.080Z,100513.66
2023-02-15T05:00:13.286Z,100517.02
2023-02-15T05:02:41.493Z,100512.80
2023-02-15T05:05:10.642Z,100520.09
2023-02-15T05:07:38.927Z,100521.98
2023-02-15T05:10:08.036Z,100523.62
2023-02-15T05:12:36.672Z,100526.20
2023-02-15T05:15:05.029Z,100531.85
2023-02-15T05:17:33.685Z,100535.48
2023-02-15T05:20:01.709Z,100540.16
2023-02-15T05:22:29.923Z,100538.27
2023-02-15T05:25:16.799Z,100540.00
2023-02-15T05:28:05.253Z,100543.93
2023-02-15T05:30:34.186Z,100545.98
2023-02-15T05:33:04.081Z,100545.25
2023-02-15T05:35:33.147Z,100550.40
2023-02-15T05:38:01.221Z,100552.50
2023-02-15T05:40:29.470Z,100549.87
2023-02-15T05:42:58.025Z,100550.80
2023-02-15T05:45:27.195Z,100552.49
2023-02-15T05:47:59.465Z,100551.27
2023-02-15T05:50:30.827Z,100552.36
2023-02-15T05:53:06.705Z,100560.10
2023-02-15T05:55:34.898Z,100553.39
2023-02-15T05:58:02.933Z,100554.77
2023-02-15T06:00:31.158Z,100562.05
2023-02-15T06:02:59.189Z,100567.25
2023-02-15T06:05:27.429Z,100568.89
2023-02-15T06:07:56.381Z,100566.52
2023-02-15T06:10:50.248Z,100567.09
2023-02-15T06:13:18.443Z,100562.21
2023-02-15T06:15:46.575Z,100564.63
2023-02-15T06:18:15.537Z,100575.35
2023-02-15T06:20:43.794Z,100582.48
2023-02-15T06:23:12.088Z,100581.64
2023-02-15T06:25:40.182Z,100577.43
2023-02-15T06:28:08.319Z,100574.37
2023-02-15T06:30:36.460Z,100580.02
2023-02-15T06:33:05.218Z,100581.88
2023-02-15T06:35:33.783Z,100584.37
2023-02-15T06:38:02.417Z,100582.57
2023-02-15T06:40:30.991Z,100581.83
2023-02-15T06:43:02.217Z,100582.36
2023-02-15T06:45:30.479Z,100580.52
2023-02-15T06:47:58.538Z,100579.61
2023-02-15T06:50:27.150Z,100575.73
2023-02-15T06:52:58.921Z,100577.09
2023-02-15T06:55:27.431Z,100576.34
2023-02-15T06:57:55.676Z,100577.52
2023-02-15T07:00:24.344Z,100574.41
2023-02-15T07:02:56.761Z,100569.75
2023-02-15T07:05:32.175Z,100566.67
2023-02-15T07:08:00.726Z,100566.55
2023-02-15T07:10:29.272Z,100562.45
2023-02-15T07:12:57.594Z,100565.81
2023-02-15T07:15:26.075Z,100563.72
2023-02-15T07:17:54.647Z,100554.02
2023-02-15T07:20:23.819Z,100559.99
2023-02-15T07:22:52.014Z,100560.81
2023-02-15T07:25:20.613Z,100555.12
2023-02-15T07:27:49.116Z,100552.54
2023-02-15T07:30:17.688Z,100556.97
2023-02-15T07:33:06.691Z,100551.44
2023-02-15T07:35:35.041Z,100547.02
2023-02-15T07:38:03.202Z,100547.83
2023-02-15T07:40:31.501Z,100546.73
2023-02-15T07:43:00.272Z,100550.62
2023-02-15T07:45:29.045Z,100550.80
2023-02-15T07:48:02.091Z,100557.63
2023-02-15T07:50:31.415Z,100553.02
2023-02-15T07:52:59.531Z,100553.52
2023-02-15T07:55:27.554Z,100563.52
2023-02-15T07:57:55.752Z,100569.01
2023-02-15T08:00:26.510Z,100572.33
2023-02-15T08:03:14.590Z,100574.58
2023-02-15T08:05:44.835Z,100578.80
2023-02-15T08:08:31.785Z,100584.69
2023-02-15T08:11:24.555Z,100592.50
2023-02-15T08:13:56.473Z,100590.89
2023-02-15T08:16:33.585Z,100591.91
2023-02-15T08:19:06.150Z,100586.45
2023-02-15T08:21:35.675Z,100590.95
2023-02-15T08:24:04.358Z,100594.69
2023-02-15T08:26:35.715Z,100596.81
2023-02-15T08:29:04.412Z,100594.48
2023-02-15T08:31:32.616Z,100591.61
2023-02-15T08:34:00.783Z,100592.55
2023-02-15T08:36:29.946Z,100589.33
2023-02-15T08:38:59.088Z,100586.89
2023-02-15T08:41:37.038Z,100583.35
2023-02-15T08:44:08.750Z,100589.89
2023-02-15T08:46:42.644Z,100587.99
2023-02-15T08:49:14.893Z,100596.38
2023-02-15T08:51:43.825Z,100586.85
2023-02-15T08:54:17.718Z,100587.04
2023-02-15T08:56:46.100Z,100591.32
2023-02-15T08:59:19.074Z,100594.32
2023-02-15T09:01:47.538Z,100592.65
2023-02-15T09:04:16.977Z,100591.79
2023-02-15T09:06:48.374Z,100593.40
2023-02-15T09:09:23.452Z,100589.86
2023-02-15T09:11:58.603Z,100590.39
2023-02-15T09:14:28.006Z,100593.36
2023-02-15T09:16:57.300Z,100597.66
2023-02-15T09:19:26.012Z,100589.08
2023-02-15T09:21:54.628Z,100592.21
2023-02-15T09:24:23.083Z,100603.67
2023-02-15T09:26:53.582Z,100592.48
2023-02-15T09:29:21.806Z,100592.73
2023-02-15T09:31:51.249Z,100595.84
2023-02-15T09:34:21.375Z,100596.56
2023-02-15T09:36:49.897Z,100596.11
2023-02-15T09:39:20.036Z,100594.29
2023-02-15T09:42:14.570Z,100589.20
2023-02-15T09:45:05.056Z,100590.41
2023-02-15T09:47:45.723Z,100589.63
2023-02-15T09:50:36.762Z,100589.36
2023-02-15T09:53:29.278Z,100592.05
2023-02-15T09:56:06.661Z,100590.15
2023-02-15T09:58:42.261Z,100589.13
2023-02-15T10:01:26.798Z,100589.00
2023-02-15T10:04:07.330Z,100581.92
2023-02-15T10:06:45.525Z,100581.98
2023-02-15T10:09:44.914Z,100575.81
2023-02-15T10:12:28.245Z,100583.74
2023-02-15T10:15:35.637Z,100587.11
2023-02-15T10:18:15.943Z,100585.48
2023-02-15T10:21:06.926Z,100581.41
2023-02-15T10:23:55.292Z,100577.20
2023-02-15T10:26:42.102Z,100579.35
2023-02-15T10:29:17.314Z,100575.08
2023-02-15T10:31:54.135Z,100581.67
2023-02-15T10:34:48.561Z,100573.30
2023-02-15T10:37:56.216Z,100568.04
2023-02-15T10:41:01.033Z,100571.95
2023-02-15T10:43:32.453Z,100575.23
2023-02-15T10:46:11.634Z,100573.71
2023-02-15T10:48:47.025Z,100574.83
2023-02-15T10:51:25.104Z,100572.57
2023-02-15T10:54:06.928Z,100569.95
2023-02-15T10:56:45.238Z,100572.75
2023-02-15T10:59:35.212Z,100569.59
2023-02-15T11:02:11.962Z,100575.23
2023-02-15T11:04:55.813Z,100565.46
2023-02-15T11:07:26.977Z,100567.16
2023-02-15T11:10:08.876Z,100569.27
2023-02-15T11:12:37.202Z,100562.73
2023-02-15T11:15:16.543Z,100567.11
2023-02-15T11:18:00.578Z,100563.31
2023-02-15T11:20:34.536Z,100569.20
2023-02-15T11:23:02.933Z,100561.11
2023-02-15T11:25:35.111Z,100554.34
2023-02-15T11:28:05.469Z,100556.73
2023-02-15T11:30:57.862Z,100555.92
2023-02-15T11:33:29.349Z,100558.18
2023-02-15T11:36:04.830Z,100554.75
2023-02-15T11:38:34.002Z,100547.79
2023-02-15T11:41:15.687Z,100555.70
2023-02-15T11:44:00.400Z,100560.92
2023-02-15T11:46:29.863Z,100552.31
2023-02-15T11:48:59.531Z,100558.99
2023-02-15T11:51:28.914Z,100556.52
2023-02-15T11:53:57.375Z,100550.18
2023-02-15T11:56:26.208Z,100555.11
2023-02-15T11:59:08.557Z,100544.77
2023-02-15T12:01:39.525Z,100545.86
2023-02-15T12:04:42.458Z,100549.20
2023-02-15T12:07:27.159Z,100545.69
2023-02-15T12:10:23.041Z,100537.79
2023-02-15T12:13:19.198Z,100539.46
2023-02-15T12:15:57.310Z,100533.89
2023-02-15T12:18:45.365Z,100536.77
2023-02-15T12:21:24.863Z,100535.98
2023-02-15T12:23:54.889Z,100537.23
2023-02-15T12:26:31.736Z,100538.22
2023-02-15T12:29:03.221Z,100535.97
2023-02-15T12:31:37.882Z,100525.38
2023-02-15T12:34:28.035Z,100535.52
2023-02-15T12:36:59.197Z,100538.62
2023-02-15T12:39:28.671Z,100528.96
2023-02-15T12:41:57.127Z,100530.75
2023-02-15T12:44:30.120Z,100531.45
2023-02-15T12:47:06.419Z,100526.53
2023-02-15T12:49:35.738Z,100521.18
2023-02-15T12:52:18.789Z,100522.59
2023-02-15T12:54:47.328Z,100524.58
2023-02-15T12:57:15.580Z,100521.77
2023-02-15T12:59:51.966Z,100524.15
2023-02-15T13:02:25.062Z,100525.13
2023-02-15T13:04:53.111Z,100530.90
2023-02-15T13:07:21.794Z,100533.05
2023-02-15T13:09:50.785Z,100535.35
2023-02-15T13:12:27.850Z,100539.07
2023-02-15T13:14:58.762Z,100532.48
2023-02-15T13:17:32.199Z,100534.58
2023-02-15T13:20:25.720Z,100540.31
2023-02-15T13:23:05.320Z,100539.30
2023-02-15T13:25:48.562Z,100543.38
2023-02-15T13:28:17.961Z,100546.38
2023-02-15T13:30:48.552Z,100550.41
2023-02-15T13:33:36.998Z,100553.01
2023-02-15T13:36:21.805Z,100553.55
2023-02-15T13:38:53.034Z,100552.10
2023-02-15T13:41:26.109Z,100553.82
2023-02-15T13:44:26.119Z,100552.80
2023-02-15T13:47:06.750Z,100554.36
2023-02-15T13:49:49.174Z,100556.10
2023-02-15T13:52:24.737Z,100557.59
2023-02-15T13:55:11.562Z,100556.65
2023-02-15T13:58:08.161Z,100556.13
2023-02-15T14:00:48.418Z,100552.59
2023-02-15T14:03:41.174Z,100559.65
2023-02-15T14:06:35.709Z,100558.41
2023-02-15T14:09:11.816Z,100555.97
2023-02-15T14:11:55.378Z,100555.25
2023-02-15T14:15:08.873Z,100552.32
2023-02-15T14:17:48.971Z,100552.73
2023-02-15T14:20:37.729Z,100551.52
2023-02-15T14:23:08.867Z,100558.08
2023-02-15T14:25:49.528Z,100552.93
2023-02-15T14:28:46.468Z,100557.64
2023-02-15T14:31:15.214Z,100560.98
2023-02-15T14:34:01.860Z,100561.64
2023-02-15T14:36:31.325Z,100560.48
2023-02-15T14:40:01.180Z,100559.35
2023-02-15T14:42:35.738Z,100555.23
2023-02-15T14:45:17.029Z,100566.60
2023-02-15T14:48:17.646Z,100561.96
2023-02-15T14:50:47.374Z,100568.81
2023-02-15T14:53:18.581Z,100568.53
2023-02-15T14:55:47.066Z,100573.30
2023-02-15T14:58:15.201Z,100574.34
2023-02-15T15:00:43.382Z,100579.34
2023-02-15T15:03:22.874Z,100579.31
2023-02-15T15:05:54.210Z,100587.02
2023-02-15T15:08:28.065Z,100582.75
2023-02-15T15:10:56.753Z,100582.89
2023-02-15T15:13:34.168Z,100586.02
2023-02-15T15:16:37.132Z,100588.58
2023-02-15T15:19:07.432Z,100592.91
2023-02-15T15:21:51.100Z,100589.56
2023-02-15T15:24:38.247Z,100597.77
2023-02-15T15:27:41.071Z,100596.17
2023-02-15T15:30:15.166Z,100591.13
2023-02-15T15:32:56.208Z,100601.29
2023-02-15T15:36:06.693Z,100604.98
2023-02-15T15:39:00.006Z,100606.65
2023-02-15T15:41:56.684Z,100612.54
2023-02-15T15:44:43.230Z,100615.27
2023-02-15T15:47:32.083Z,100609.51
2023-02-15T15:50:02.054Z,100606.65
2023-02-15T15:52:32.592Z,100614.44
2023-02-15T15:55:07.098Z,100610.52
2023-02-15T15:57:38.798Z,100607.92
2023-02-15T16:00:45.739Z,100610.40
2023-02-15T16:03:21.423Z,100613.06
2023-02-15T16:05:55.391Z,100622.69
2023-02-15T16:08:35.986Z,100623.05
2023-02-15T16:11:34.189Z,100625.31
2023-02-15T16:14:02.429Z,100627.17
2023-02-15T16:16:30.720Z,100628.19
2023-02-15T16:19:00.788Z,100630.25
2023-02-15T16:21:33.021Z,100632.20
2023-02-15T16:24:15.012Z,100634.52
2023-02-15T16:27:14.747Z,100631.89
2023-02-15T16:29:43.231Z,100636.10
2023-02-15T16:32:25.732Z,100634.04
2023-02-15T16:34:58.670Z,100633.77
2023-02-15T16:37:28.564Z,100635.73
2023-02-15T16:39:56.679Z,100634.47
2023-02-15T16:42:26.200Z,100636.73
2023-02-15T16:45:09.067Z,100637.31
2023-02-15T16:47:44.978Z,100639.46
2023-02-15T16:50:25.414Z,100633.67
2023-02-15T16:52:55.585Z,100632.83
2023-02-15T16:55:25.659Z,100631.41
2023-02-15T16:58:00.014Z,100629.75
2023-02-15T17:00:32.080Z,100630.30
2023-02-15T17:03:03.029Z,100637.49
2023-02-15T17:05:33.340Z,100636.96
2023-02-15T17:08:05.574Z,100640.47
2023-02-15T17:10:39.902Z,100639.05
2023-02-15T17:13:15.029Z,100635.96
2023-02-15T17:16:07.793Z,100636.43
2023-02-15T17:18:46.056Z,100642.24
2023-02-15T17:21:18.821Z,100640.16
2023-02-15T17:23:48.520Z,100642.35
2023-02-15T17:26:20.671Z,100643.84
2023-02-15T17:28:57.348Z,100642.48
2023-02-15T17:31:32.991Z,100645.20
2023-02-15T17:34:05.781Z,100639.89
2023-02-15T17:36:35.061Z,100636.84
2023-02-15T17:39:10.900Z,100638.62
2023-02-15T17:41:40.842Z,100634.03
2023-02-15T17:44:14.963Z,100631.83
2023-02-15T17:46:44.522Z,100631.89
2023-02-15T17:49:23.302Z,100631.73
2023-02-15T17:51:51.424Z,100634.61
2023-02-15T17:54:38.901Z,100631.76
2023-02-15T17:57:13.015Z,100627.58
2023-02-15T18:00:00.860Z,100630.73
2023-02-15T18:02:51.857Z,100630.95
2023-02-15T18:05:42.546Z,100635.69
2023-02-15T18:08:37.991Z,100636.08
2023-02-15T18:11:27.063Z,100632.76
2023-02-15T18:14:00.707Z,100640.56
2023-02-15T18:16:37.555Z,100637.03
2023-02-15T18:19:17.810Z,100637.77
2023-02-15T18:21:46.148Z,100640.08
2023-02-15T18:24:24.957Z,100642.61
2023-02-15T18:26:54.280Z,100644.84
2023-02-15T18:29:22.729Z,100635.80
2023-02-15T18:31:53.534Z,100636.25
2023-02-15T18:34:25.799Z,100639.80
2023-02-15T18:36:54.378Z,100640.39
2023-02-15T18:39:40.994Z,100644.63
2023-02-15T18:42:21.814Z,100647.15
2023-02-15T18:45:05.464Z,100648.77
2023-02-15T18:47:34.279Z,100645.54
2023-02-15T18:50:02.368Z,100645.33
2023-02-15T18:52:32.690Z,100642.95
2023-02-15T18:55:02.920Z,100645.56
2023-02-15T18:57:31.326Z,100644.61
2023-02-15T18:59:59.363Z,100643.42
2023-02-15T19:02:29.284Z,100638.77
2023-02-15T19:04:57.355Z,100640.69
2023-02-15T19:07:26.873Z,100643.57
2023-02-15T19:09:57.244Z,100640.45
2023-02-15T19:12:25.454Z,100638.21
2023-02-15T19:14:59.089Z,100635.13
2023-02-15T19:17:28.259Z,100637.45
2023-02-15T19:19:56.335Z,100635.83
2023-02-15T19:22:29.577Z,100629.09
2023-02-15T19:25:00.978Z,100631.11
2023-02-15T19:27:31.992Z,100628.20
2023-02-15T19:30:00.265Z,100629.86
2023-02-15T19:32:31.871Z,100629.06
2023-02-15T19:35:00.366Z,100628.76
2023-02-15T19:37:37.324Z,100623.27
2023-02-15T19:40:07.514Z,100629.74
2023-02-15T19:42:35.744Z,100635.63
2023-02-15T19:45:13.651Z,100636.73
2023-02-15T19:47:43.503Z,100638.89
2023-02-15T19:50:20.352Z,100637.30
2023-02-15T19:52:48.515Z,100638.38
2023-02-15T19:55:26.448Z,100637.56
2023-02-15T19:57:55.858Z,100634.90
2023-02-15T20:00:32.702Z,100633.95
2023-02-15T20:03:02.026Z,100635.52
2023-02-15T20:05:31.053Z,100639.56
2023-02-15T20:07:59.118Z,100639.61
2023-02-15T20:10:29.139Z,100635.91
2023-02-15T20:12:57.360Z,100635.74
2023-02-15T20:15:33.551Z,100636.48
2023-02-15T20:18:04.285Z,100633.14
2023-02-15T20:20:44.828Z,100632.94
2023-02-15T20:23:30.700Z,100633.27
2023-02-15T20:26:02.217Z,100633.27
2023-02-15T20:28:31.720Z,100637.06
2023-02-15T20:31:00.227Z,100634.02
2023-02-15T20:33:28.645Z,100635.59
2023-02-15T20:35:57.884Z,100636.05
2023-02-15T20:38:28.349Z,100634.26
2023-02-15T20:41:15.304Z,100632.08
2023-02-15T20:43:43.377Z,100630.64
2023-02-15T20:46:11.697Z,100630.61
2023-02-15T20:48:40.330Z,100629.83
2023-02-15T20:51:18.532Z,100624.89
2023-02-15T20:53:47.965Z,100625.27
2023-02-15T20:56:20.771Z,100625.19
2023-02-15T20:58:49.063Z,100626.89
2023-02-15T21:01:19.924Z,100628.77
2023-02-15T21:03:48.501Z,100629.96
2023-02-15T21:06:20.942Z,100627.60
2023-02-15T21:08:49.066Z,100627.72
2023-02-15T21:11:21.180Z,100624.31
2023-02-15T21:14:23.441Z,100627.04
2023-02-15T21:16:51.632Z,100625.90
2023-02-15T21:19:21.243Z,100625.73
2023-02-15T21:21:51.466Z,100633.83
2023-02-15T21:24:20.762Z,100634.77
2023-02-15T21:26:49.204Z,100632.81
2023-02-15T21:29:18.710Z,100632.25
2023-02-15T21:31:47.158Z,100628.42
2023-02-15T21:34:15.733Z,100630.02
2023-02-15T21:36:44.350Z,100627.94
2023-02-15T21:39:18.282Z,100628.88
2023-02-15T21:42:06.536Z,100634.22
2023-02-15T21:44:53.298Z,100632.16
2023-02-15T21:47:50.801Z,100633.32
2023-02-15T21:50:39.501Z,100636.53
2023-02-15T21:53:09.828Z,100635.11
2023-02-15T21:55:38.847Z,100635.40
2023-02-15T21:58:07.237Z,100637.32
2023-02-15T22:00:36.301Z,100636.05
2023-02-15T22:03:04.447Z,100637.48
2023-02-15T22:05:33.439Z,100636.79
2023-02-15T22:08:01.666Z,100638.15
2023-02-15T22:10:32.936Z,100633.56
2023-02-15T22:13:01.824Z,100629.95
2023-02-15T22:15:36.824Z,100630.70
2023-02-15T22:18:05.581Z,100633.11
2023-02-15T22:20:34.879Z,100634.89
2023-02-15T22:23:03.273Z,100630.30
2023-02-15T22:25:31.769Z,100630.21
2023-02-15T22:28:00.112Z,100628.66
2023-02-15T22:30:30.679Z,100627.31
2023-02-15T22:32:58.881Z,100631.02
2023-02-15T22:35:29.453Z,100629.52
2023-02-15T22:37:58.159Z,100624.69
2023-02-15T22:40:33.941Z,100628.92
2023-02-15T22:43:03.756Z,100628.80
2023-02-15T22:45:32.349Z,100622.45
2023-02-15T22:48:00.738Z,100627.13
2023-02-15T22:50:30.788Z,100629.49
2023-02-15T22:53:02.389Z,100632.12
2023-02-15T22:55:33.855Z,100629.87
2023-02-15T22:58:01.905Z,100630.77
2023-02-15T23:00:32.898Z,100624.98
2023-02-15T23:03:00.906Z,100624.91
2023-02-15T23:05:30.652Z,100625.40
2023-02-15T23:08:11.576Z,100626.71
2023-02-15T23:10:40.535Z,100623.36
2023-02-15T23:13:25.559Z,100624.73
2023-02-15T23:15:58.713Z,100627.45
2023-02-15T23:18:38.533Z,100620.41
2023-02-15T23:21:10.914Z,100616.73
2023-02-15T23:23:41.711Z,100623.73
2023-02-15T23:26:27.866Z,100618.36
2023-02-15T23:28:57.345Z,100625.05
2023-02-15T23:31:29.864Z,100621.89
2023-02-15T23:34:12.802Z,100627.72
2023-02-15T23:36:41.104Z,100628.27
2023-02-15T23:39:34.338Z,100630.73
2023-02-15T23:42:10.684Z,100635.77
2023-02-15T23:44:38.782Z,100630.48
2023-02-15T23:47:07.401Z,100626.58
2023-02-15T23:49:35.591Z,100629.30
2023-02-15T23:52:06.191Z,100629.51
2023-02-15T23:54:35.541Z,100636.31
2023-02-15T23:57:04.061Z,100633.11
2023-02-15T23:59:32.399Z,100635.34
